FBU weather

CLOSED Oslo, Fornebu Airport
Oslo, Oslo, Norway

Public forecast

Using degrees Celsius for public forecast. Weather courtesy of forecast.io.

METAR (pilot weather report)

Retrieved 2019/05/23 02:20 UTC (13 minutes ago):

ENFB 230220Z AUTO 18023KT 7000NDV -RA BKN005/// BKN048/// 10/10 Q1004 W///S4

TAF (pilot weather forecast)

Forecast is more than 12 hours old.

Closest forecast is Oslo Gardermoen Airport, 23.0 nm (42.6 km) NE. Retrieved 2019/05/22 00:57 UTC (1 day ago):

TAF ENGM 222300Z 2300/2324 19010KT 9999 FEW005 BKN010 PROB40 2300/2304 3000 BR BKN006 BECMG 2304/2306 FEW040 PROB40 TEMPO 2321/2324 4000 SHRA BKN009 SCT018CB